Jump to content


CUBANA DE AVIACION FLIGHT CU9591 FLOWN ON 01-26-2018 BY CAPTAIN ADEL CABALLIN

Pilot StatsCaptain Adel Caballin (LDP11) • 724.7 total hours • 386 total flights [View Logbook]
FLIGHT DETAILS
StatusReceived and approved on 2018-01-25 at 18:01:44
Origin AirportAmilcar Cabral (GVAC) • Sal, Cape Verde (177 feet MSL)
Filed Flight PlanFLIGHT PLANNER OFFLINE
Destination AirportJose Marti Intl (MUHA) • Havana, Cuba (210 feet MSL)
Alternate AirportJuan G. Gomez Intl (MUVR) • Varadero, Cuba (210 feet MSL)
AirlineCubana de Aviacion
AircraftIlyushin IL-62 (IL6 / IL-62)
FS Aircraft UsedProject Tupolev IL-62M_V1_03
Cruising AltitudeFL300
Distance Flown3,357 nautical miles
Passengers Onboard157 passengers (90.23% full)
DEPARTURE DETAILS
Time Out16:10:42
Taxi Data350,803 lbs total with 191,525 lbs of fuel onboard
Takeoff Data16:25:28 (15 minutes after leaving gate/ramp) • 347,158 lbs total • 8° pitch at 181 knots
Departure METARGVAC 251500Z 05014KT 8000 NSC 27/15 Q1014 NOSIG
ARRIVAL DETAILS
Landing Data20:26:06 • 170,999 lbs total • 4° pitch doing 124 knots at a rate of -92.27 feet/minute with 11,201 lbs of fuel onboard
Time In20:30:51 (5 minutes after landing)
Ramp Weight170,479 lbs total
Total Fuel Used180,324 lbs
Total Block Time08:19:07 (8.3 hours) while 20 minutes were spent on the ground
Arrival METARMUHA 252255Z 06012KT 7000 -RA FEW007 BKN015 22/21 Q1021
MISCELLANEOUS DETAILS
LiveDISPATCH Version4.8.3.1
FS Version
FSUIPC Version4.97
OS VersionWindows 7 32-bit
Screen Resolution1920 x 1080
Pilot's CommentsRoute: KESIK1A KESIK IREDO UR976 ULTEM 2300N 04000W 2500N 05000W FIVZE RODRK INDEE DUNNO UCJ J1 UVA UHA
FLIGHT MAP